Pagrindinis puslapis
METAR-TAF:

METAR-TAF

Oro uostai :

Ansi, Prancūzija

platuma: 45-55-45N, ilguma: 006-05-56E, Aukštis: 463 m

Dabartinis oras

Ataskaita buvo paskelbta 31 minutes, ne 13:30 UTC
Vėjas 5 kt iš Pietvakarių, svyruoja nuo Pietų/Pietvakarių ir Vakarų
Temperatūra 19°C
Drėgmė 37%
Slėgis 1029 hPa
Matomumas 10 km arba daugiau
nėra debesų žemiau 1500 m ir nėra kamuolinių lietaus debesų

METAR: LFLP 251330Z AUTO 22005KT 200V280 CAVOK 19/04 Q1029 NOSIG

Laikas: 15:01 (14:01 UTC)

Prognozė

Ataskaita buvo paskelbta 6 valandos ir 1 minutes, ne 08:00 UTC
Prognozė galioja nuo 25 metu 09 UTC su 26 metu 09 UTC
Vėjas 3 kt nuo kintamojo kryptimis
Matomumas 10 km arba daugiau
nėra debesų žemiau 1500 m ir nėra kamuolinių lietaus debesų
Tikimybė 30% :
Laikinai
nuo 26 metu 05 UTC su 26 metu 07 UTC
Matomumas: 4000 m
Sekli rūkas

TAF: LFLP 250800Z 2509/2609 VRB03KT CAVOK PROB30 TEMPO 2605/2607 4000 MIFG

Orai ataskaitas ir orų prognozės (METAR, TAF).

turimą stotys yra geltonos ir raudonos taškus žemėlapyje.

Perkelti pele per norėdami pamatyti stoties vardą.

Tada spustelėkite, norėdami matyti oro stebėjimo ir prognozės.

Norėdami pakeisti žemėlapį: spustelėkite ant žalios mygtukų su juodo kryžiaus žemyn,; žalią mygtuką su brūkšneliu, jei norite nutolinti; arba žalių rodyklių gretimoms žemėlapius.


METAR-TAF: